Kensworth, United Kingdom
Current Conditions -  °F | °C
As of 9:20 PM on Friday 28 Nov 2014 (Local Time) from EGGW Reporting Station
Haze Haze  
Wind Chill: 50°   Ceiling: Unl
Heat Index: 50°   Visibility: 3mi
Dew Point: 48°   Wind: 6mph
Humidity: 94%   Direction: 80°E
Pressure: 29.74"   Gusts: NA
Location:  51.85°N, 0.5°W
Report Text: EGGW 282120Z AUTO 08005KT 4900 BR NCD 10/09 Q1007
Loading
Personal Weather Stations






























Interactive Weather Map New forecast layout! Learn more

10-Day Weather Forecast

Advertisements
Track Severe Weather on mobile